Terminal Aerodrome Forecast
Issued by NWS

Current Version | Previous Version | Text Only | Print | Product List | Glossary On
Versions: 1 2 3 4 5 6 7 8 9 10 11 12
000
FTUS43 KILX 120500
TAFCMI
TAF
KCMI 120525Z 1206/1306 13006KT P6SM VCSH SCT050 BKN110
     FM121100 17006KT P6SM VCSH SCT050 BKN100
     FM121600 22008KT P6SM VCTS FEW050CB BKN100
     FM130100 22010KT P6SM VCTS FEW025 BKN040CB=

USA.gov is the U.S. government's official web portal to all federal, state and local government web resources and services.